Latest Weather Observations for Hartz Mountains

IDT60801

Issued at 12:05 pm EST Tuesday 23 September 2014 (issued every 30 minutes, with the page automatically refreshed every 10 minutes)

About weather observations | Map of weather stations | Latest weather observations for TAS | Other Formats
Station Details ID: 094191 Name: HARTZ MOUNTAIN (KEOGHS PIMPLE) Lat: -43.20 Lon: 146.77 Height: 831.0 m
Data from the previous 72 hours. | See also: Recent months at Hartz Mountains
Date/Time
EST
Temp
°C
App
Temp
°C
Dew
Point
Rel
Hum
%
Delta-T
°C
Wind Press
QNH
hPa
Press
MSL
hPa
Rain
since 9 am
mm
Dir
 
Spd
km/h
Gust
km/h
Spd
kts
Gust
kts
23/12:02pm 15.5 6.2 -2.4 29 7.6 WNW 37 57 20 31 - - 0.0
23/12:00pm 15.6 7.0 0.2 35 6.9 WNW 35 52 19 28 - - 0.0
23/11:30am 13.9 3.7 -0.5 37 6.3 W 43 63 23 34 - - 0.0
23/11:00am 13.1 3.4 0.2 41 5.6 WNW 41 65 22 35 - - 0.0
23/10:39am 12.8 2.1 -3.0 33 6.4 WNW 44 74 24 40 - - 0.0
23/10:30am 12.7 4.5 -0.9 39 5.8 W 32 52 17 28 - - 0.0
23/10:00am 11.7 2.4 0.8 47 4.8 W 39 57 21 31 - - 0.0
23/09:30am 10.7 1.3 -0.1 47 4.6 W 39 59 21 32 - - 0.0
23/09:00am 10.1 -1.5 -1.0 46 4.6 W 50 72 27 39 - - 0.0
23/08:31am 9.2 -1.8 -2.4 44 4.6 W 46 65 25 35 - - 0.0
23/08:30am 9.2 -1.8 -1.8 46 4.4 W 46 63 25 34 - - 0.0
23/08:00am 8.6 -2.5 -2.6 45 4.4 W 46 67 25 36 - - 0.0
23/07:30am 8.1 -4.9 -2.5 47 4.1 W 56 74 30 40 - - 0.0
23/07:00am 7.7 -4.9 -2.3 49 3.9 W 54 74 29 40 - - 0.0
23/06:30am 7.4 -5.1 -2.1 51 3.7 W 54 72 29 39 - - 0.0
23/06:00am 7.1 -5.9 -1.6 54 3.4 W 57 72 31 39 - - 0.0
23/05:30am 7.1 -5.9 -2.6 50 3.7 W 56 74 30 40 - - 0.0
23/05:00am 7.1 -4.6 -1.6 54 3.4 W 50 69 27 37 - - 0.0
23/04:32am 7.3 -3.7 -1.9 52 3.6 W 46 65 25 35 - - 0.0
23/04:30am 7.2 -4.2 -2.0 52 3.6 W 48 65 26 35 - - 0.0
23/04:10am 7.1 -4.2 -1.1 56 3.3 W 48 70 26 38 - - 0.0
23/04:00am 7.3 -4.0 -1.1 55 3.4 W 48 59 26 32 - - 0.0
23/03:30am 7.4 -3.3 -2.6 49 3.9 W 44 56 24 30 - - 0.0
23/03:00am 7.4 -3.2 -1.8 52 3.6 W 44 59 24 32 - - 0.0
23/02:30am 7.4 -4.3 -1.5 53 3.5 W 50 63 27 34 - - 0.0
23/02:16am 7.3 -4.0 -1.1 55 3.4 W 48 67 26 36 - - 0.0
23/02:00am 7.3 -4.3 -1.1 55 3.4 W 50 63 27 34 - - 0.0
23/01:30am 8.0 -5.1 -2.0 49 4.0 W 57 76 31 41 - - 0.0
23/01:03am 7.9 -5.2 -2.4 48 4.0 W 57 78 31 42 - - 0.0
23/01:00am 8.0 -5.2 -3.2 45 4.3 W 57 74 31 40 - - 0.0
23/12:30am 8.1 -4.5 -6.4 35 5.2 W 52 70 28 38 - - 0.0
23/12:00am 8.6 -3.7 -7.1 32 5.5 W 50 70 27 38 - - 0.0
 
Date/Time
EST
Temp
°C
App
Temp
°C
Dew
Point
Rel
Hum
%
Delta-T
°C
Wind Press
QNH
hPa
Press
MSL
hPa
Rain
since 9 am
mm
Dir
 
Spd
km/h
Gust
km/h
Spd
kts
Gust
kts
22/11:30pm 8.5 -3.7 -6.1 35 5.3 W 50 72 27 39 - - 0.0
22/11:27pm 8.6 -3.6 -6.0 35 5.3 W 50 72 27 39 - - 0.0
22/11:00pm 8.3 -4.1 -4.2 41 4.7 W 52 67 28 36 - - 0.0
22/10:37pm 8.8 -2.6 -5.8 35 5.3 W 46 65 25 35 - - 0.0
22/10:30pm 8.8 -3.0 -6.2 34 5.4 W 48 61 26 33 - - 0.0
22/10:00pm 9.0 -3.6 -6.0 34 5.5 W 52 74 28 40 - - 0.0
22/09:33pm 8.8 -4.7 -5.4 36 5.2 W 57 83 31 45 - - 0.0
22/09:30pm 8.6 -4.4 -2.9 44 4.5 W 56 72 30 39 - - 0.0
22/09:00pm 9.3 -3.6 -5.0 36 5.3 W 54 72 29 39 - - 0.0
22/08:59pm 9.4 -3.4 -4.5 37 5.3 W 54 72 29 39 - - 0.0
22/08:30pm 9.5 -3.6 -1.8 45 4.6 W 57 72 31 39 - - 0.0
22/08:00pm 9.3 -2.3 -0.8 49 4.2 W 50 65 27 35 - - 0.0
22/07:52pm 9.6 -1.4 -1.7 45 4.6 W 46 65 25 35 - - 0.0
22/07:30pm 10.3 -0.6 -4.5 35 5.7 W 44 61 24 33 - - 0.0
22/07:02pm 10.4 0.0 -4.8 34 5.8 W 41 59 22 32 - - 0.0
22/07:00pm 10.4 -0.5 -6.0 31 6.1 W 43 59 23 32 - - 0.0
22/06:30pm 10.8 -0.7 -7.0 28 6.5 W 46 69 25 37 - - 0.0
22/06:03pm 11.5 -0.1 -7.8 25 6.9 WNW 46 65 25 35 - - 0.0
22/06:00pm 11.4 0.2 -7.9 25 6.9 WNW 44 57 24 31 - - 0.0
22/05:30pm 11.9 0.4 -6.5 27 6.8 W 46 61 25 33 - - 0.0
22/05:00pm 12.8 1.1 -4.3 30 6.8 W 48 65 26 35 - - 0.0
22/04:30pm 12.9 2.3 -3.4 32 6.6 W 43 54 23 29 - - 0.0
22/04:00pm 14.7 6.3 -2.7 30 7.3 WNW 32 43 17 23 - - 0.0
22/03:30pm 13.8 4.1 -2.2 33 6.7 W 39 52 21 28 - - 0.0
22/03:08pm 15.5 6.5 -2.4 29 7.6 W 35 57 19 31 - - 0.0
22/03:00pm 16.1 7.9 -1.0 31 7.5 W 32 46 17 25 - - 0.0
22/02:31pm 16.7 8.2 -1.9 28 8.0 WNW 33 52 18 28 - - 0.0
22/02:30pm 16.6 8.5 -0.6 31 7.6 WNW 32 46 17 25 - - 0.0
22/02:25pm 17.1 9.8 -0.1 31 7.7 W 28 46 15 25 - - 0.0
22/02:00pm 16.6 9.4 -2.0 28 8.0 W 26 41 14 22 - - 0.0
22/01:40pm 16.6 8.5 -0.1 32 7.5 WNW 32 50 17 27 - - 0.0
22/01:30pm 16.6 8.3 -1.5 29 7.9 WNW 32 46 17 25 - - 0.0
22/01:27pm 16.9 9.4 -1.7 28 8.1 WNW 28 46 15 25 - - 0.0
22/01:00pm 14.5 6.3 -1.2 34 6.8 W 32 41 17 22 - - 0.0
22/12:30pm 15.1 6.8 2.0 41 6.1 W 35 48 19 26 - - 0.0
22/12:00pm 14.5 6.2 2.1 43 5.7 W 35 50 19 27 - - 0.0
22/11:30am 13.6 4.6 0.3 40 5.9 W 37 57 20 31 - - 0.0
22/11:00am 13.3 6.0 0.3 41 5.7 WNW 28 46 15 25 - - 0.0
22/10:30am 12.4 5.2 0.8 45 5.1 W 28 39 15 21 - - 0.0
22/10:00am 11.9 4.4 1.0 47 4.8 W 30 43 16 23 - - 0.0
22/09:34am 11.4 2.5 0.5 47 4.7 W 37 56 20 30 - - 0.0
22/09:30am 11.3 1.8 -1.1 42 5.2 W 39 56 21 30 - - 0.0
22/09:07am 10.9 1.6 0.3 48 4.6 W 39 57 21 31 - - 0.0
22/09:00am 10.9 1.5 -0.2 46 4.7 W 39 52 21 28 - - 0.0
22/08:50am 11.0 2.0 -0.2 46 4.8 W 37 56 20 30 - - 0.0
22/08:30am 11.0 1.7 -2.1 40 5.3 W 37 50 20 27 - - 0.0
22/08:29am 11.0 1.7 -2.4 39 5.4 W 37 56 20 30 - - 0.0
22/08:00am 10.6 0.0 -3.1 38 5.4 W 43 57 23 31 - - 0.0
22/07:30am 9.9 -0.3 -0.6 48 4.4 W 43 59 23 32 - - 0.0
22/07:00am 9.5 -1.7 -0.4 50 4.1 W 48 69 26 37 - - 0.0
22/06:52am 9.6 -1.2 -0.6 49 4.2 W 46 67 25 36 - - 0.0
22/06:30am 9.1 -2.4 0.0 53 3.8 W 50 63 27 34 - - 0.0
22/06:00am 8.9 -3.1 -1.2 49 4.1 W 52 61 28 33 - - 0.0
22/05:30am 8.5 -2.7 -3.7 42 4.7 W 46 59 25 32 - - 0.0
22/05:00am 8.0 -2.8 -5.4 38 4.9 W 43 52 23 28 - - 0.0
22/04:30am 7.4 -2.3 -6.0 38 4.8 W 37 44 20 24 - - 0.0
22/04:00am 7.5 -1.0 -6.9 35 5.0 W 30 35 16 19 - - 0.0
22/03:30am 6.8 -1.2 -5.5 41 4.4 W 28 35 15 19 - - 0.0
22/03:00am 6.8 -2.2 -3.1 49 3.8 W 35 44 19 24 - - 0.0
22/02:30am 7.2 -1.2 -5.8 39 4.6 W 30 35 16 19 - - 0.0
22/02:00am 7.4 -1.1 -7.0 35 5.0 W 30 37 16 20 - - 0.0
22/01:30am 6.6 -2.0 -3.9 47 3.9 W 32 35 17 19 - - 0.0
22/01:00am 7.2 -1.5 -4.8 42 4.4 W 32 37 17 20 - - 0.0
22/12:30am 6.7 -1.9 -3.8 47 3.9 W 32 37 17 20 - - 0.0
22/12:00am 7.4 -1.4 -6.0 38 4.8 W 32 37 17 20 - - 0.0
 
Date/Time
EST
Temp
°C
App
Temp
°C
Dew
Point
Rel
Hum
%
Delta-T
°C
Wind Press
QNH
hPa
Press
MSL
hPa
Rain
since 9 am
mm
Dir
 
Spd
km/h
Gust
km/h
Spd
kts
Gust
kts
21/11:30pm 7.0 -1.4 -5.7 40 4.5 W 30 33 16 18 - - 0.0
21/11:00pm 5.5 -2.4 -1.4 61 2.7 W 30 35 16 19 - - 0.0
21/10:30pm 3.9 -5.1 2.7 92 0.5 W 39 46 21 25 - - 0.0
21/10:00pm 4.0 -5.7 2.8 92 0.5 W 43 52 23 28 - - 0.0
21/09:30pm 4.1 -6.2 2.9 92 0.5 W 46 56 25 30 - - 0.0
21/09:00pm 4.3 -5.9 3.1 92 0.5 W 46 59 25 32 - - 0.0
21/08:30pm 4.6 -7.2 2.9 89 0.7 W 54 69 29 37 - - 0.0
21/08:00pm 4.7 -6.7 3.0 89 0.7 W 52 65 28 35 - - 0.0
21/07:30pm 5.0 -6.3 3.3 89 0.7 W 52 63 28 34 - - 0.0
21/07:00pm 5.5 -5.8 3.3 86 1.0 W 52 63 28 34 - - 0.0
21/06:30pm 5.5 -5.4 3.8 89 0.8 W 50 59 27 32 - - 0.0
21/06:00pm 6.1 -4.4 3.9 86 1.0 W 48 57 26 31 - - 0.0
21/05:30pm 7.4 -3.3 4.4 81 1.4 W 50 59 27 32 - - 0.0
21/05:00pm 8.0 -3.5 4.2 77 1.7 W 54 65 29 35 - - 0.0
21/04:30pm 9.0 -0.3 5.0 76 1.9 W 43 57 23 31 - - 0.0
21/04:27pm 9.1 0.5 4.9 75 2.0 W 39 57 21 31 - - 0.0
21/04:00pm 9.7 1.0 4.3 69 2.5 W 39 54 21 29 - - 0.0
21/03:30pm 10.1 0.6 3.8 65 2.9 WSW 43 56 23 30 - - 0.0
21/03:06pm 11.0 2.9 5.1 67 2.8 W 37 56 20 30 - - 0.0
21/03:00pm 10.7 1.7 4.4 65 3.0 W 41 56 22 30 - - 0.0
21/02:49pm 10.8 3.4 4.9 67 2.8 WSW 33 52 18 28 - - 0.0
21/02:30pm 11.2 4.1 6.3 72 2.4 WSW 33 50 18 27 - - 0.0
21/02:00pm 11.5 5.2 5.6 67 2.9 W 28 43 15 23 - - 0.0
21/01:41pm 11.4 4.8 6.1 70 2.6 WSW 30 48 16 26 - - 0.0
21/01:30pm 11.1 4.0 5.4 68 2.7 WSW 32 44 17 24 - - 0.0
21/01:00pm 11.1 4.1 5.8 70 2.6 W 32 44 17 24 - - 0.0
21/12:30pm 10.2 3.5 5.8 74 2.1 W 30 43 16 23 - - 0.0
21/12:00pm 10.2 3.9 5.8 74 2.1 W 28 43 15 23 - - 0.0
21/11:30am 8.7 0.0 4.1 73 2.1 WSW 39 50 21 27 - - 0.0
21/11:00am 8.6 1.2 5.0 78 1.7 W 33 46 18 25 - - 0.0
21/10:30am 8.0 0.7 4.6 79 1.6 W 32 48 17 26 - - 0.0
21/10:16am 7.7 0.8 4.7 81 1.4 W 30 48 16 26 - - 0.0
21/10:00am 7.1 -0.4 3.5 78 1.6 WSW 32 44 17 24 - - 0.0
21/09:30am 6.6 -0.9 3.6 81 1.3 W 32 44 17 24 - - 0.0
21/09:00am 5.9 -1.2 3.6 85 1.0 WSW 30 46 16 25 - - 0.0
21/08:53am 6.0 -1.4 3.8 86 1.0 WSW 32 50 17 27 - - 0.0
21/08:30am 5.3 -5.5 4.1 92 0.5 WSW 50 63 27 34 - - 0.0
21/08:00am 4.9 -5.9 4.0 94 0.4 WSW 50 63 27 34 - - 0.0
21/07:30am 5.3 -7.2 4.1 92 0.5 WSW 59 70 32 38 - - 0.0
21/07:00am 4.8 -7.3 4.2 96 0.3 WSW 57 69 31 37 - - 0.0
21/06:30am 4.8 -7.3 4.1 95 0.3 WSW 57 72 31 39 - - 0.0
21/06:00am 4.7 -6.9 4.1 96 0.3 WSW 54 67 29 36 - - 0.0
21/05:51am 4.8 -7.3 4.2 96 0.3 WSW 57 76 31 41 - - 0.0
21/05:30am 5.0 -7.0 4.7 98 0.1 WSW 57 70 31 38 - - 0.0
21/05:00am 5.1 -4.4 4.7 97 0.2 WSW 44 69 24 37 - - 0.0
21/04:30am 4.9 -3.3 4.6 98 0.1 WSW 37 63 20 34 - - 0.0
21/04:09am 4.8 -3.4 4.5 98 0.1 WSW 37 56 20 30 - - 0.0
21/04:00am 4.7 -3.2 4.4 98 0.1 WSW 35 52 19 28 - - 0.0
21/03:30am 4.6 -5.0 4.5 99 0.0 W 44 63 24 34 - - 0.0
21/03:00am 4.5 -6.2 4.4 99 0.0 WSW 50 74 27 40 - - 0.0
21/02:48am 4.4 -4.7 4.1 98 0.1 W 41 63 22 34 - - 0.0
21/02:30am 4.3 -4.8 4.0 98 0.1 W 41 57 22 31 - - 0.0
21/02:00am 4.1 -5.4 3.8 98 0.1 W 43 63 23 34 - - 0.0
21/01:30am 4.0 -5.8 3.6 97 0.2 W 44 63 24 34 - - 0.0
21/01:24am 4.1 -5.5 3.5 96 0.3 W 43 63 23 34 - - 0.0
21/01:20am 4.0 -4.1 3.4 96 0.3 W 35 43 19 23 - - 0.0
21/01:00am 4.1 -8.0 3.2 94 0.4 W 56 74 30 40 - - 0.0
21/12:58am 4.1 -8.0 3.2 94 0.4 W 56 74 30 40 - - 0.0
21/12:30am 4.2 -9.7 2.9 91 0.6 W 65 80 35 43 - - 0.0
21/12:00am 4.1 -9.0 2.8 91 0.6 W 61 80 33 43 - - 0.0
 
Date/Time
EST
Temp
°C
App
Temp
°C
Dew
Point
Rel
Hum
%
Delta-T
°C
Wind Press
QNH
hPa
Press
MSL
hPa
Rain
since 9 am
mm
Dir
 
Spd
km/h
Gust
km/h
Spd
kts
Gust
kts
20/11:30pm 3.9 -8.2 3.0 94 0.4 W 56 83 30 45 - - 0.0
20/11:00pm 3.8 -8.0 2.9 94 0.4 W 54 72 29 39 - - 0.0
20/10:30pm 3.7 -5.7 2.5 92 0.5 W 41 65 22 35 - - 0.0
20/10:00pm 3.7 -6.7 2.1 89 0.7 W 46 67 25 36 - - 0.0
20/09:30pm 3.7 -8.2 2.1 89 0.7 W 54 78 29 42 - - 0.0
20/09:07pm 3.6 -8.9 2.1 90 0.6 W 57 76 31 41 - - 0.0
20/09:00pm 3.6 -8.6 2.4 92 0.5 W 56 70 30 38 - - 0.0
20/08:35pm 3.6 -8.2 3.0 96 0.3 W 54 72 29 39 - - 0.0
20/08:30pm 3.6 -8.2 3.0 96 0.3 WSW 54 70 29 38 - - 0.0
20/08:04pm 3.6 -7.0 3.2 97 0.2 W 48 69 26 37 - - 0.0
20/08:00pm 3.6 -7.0 3.2 97 0.2 W 48 65 26 35 - - 0.0
20/07:51pm 3.6 -7.0 3.2 97 0.2 W 48 67 26 36 - - 0.0
20/07:30pm 3.7 -8.1 2.8 94 0.4 W 54 69 29 37 - - 0.0
20/07:00pm 3.9 -7.9 2.7 92 0.5 W 54 76 29 41 - - 0.0
20/06:32pm 3.9 -9.0 2.1 88 0.8 W 59 82 32 44 - - 0.0
20/06:30pm 3.8 -9.0 2.2 89 0.7 W 59 76 32 41 - - 0.0
20/06:20pm 3.8 -9.4 2.2 89 0.7 W 61 80 33 43 - - 0.0
20/06:00pm 4.0 -8.2 2.4 89 0.7 W 56 72 30 39 - - 0.0
20/05:30pm 4.1 -5.7 3.1 93 0.4 W 44 67 24 36 - - 0.0
20/05:00pm 4.4 -4.8 3.5 94 0.4 W 41 59 22 32 - - 0.0
20/04:48pm 4.3 -5.5 3.3 93 0.4 W 44 63 24 34 - - 0.0
20/04:30pm 4.5 -8.5 3.3 92 0.5 WSW 61 74 33 40 - - 0.0
20/04:00pm 4.5 -10.2 3.3 92 0.5 W 70 87 38 47 - - 0.0
20/03:30pm 5.2 -8.9 3.5 89 0.7 W 67 80 36 43 - - 0.0
20/03:04pm 5.6 -7.9 2.9 83 1.2 W 63 82 34 44 - - 0.0
20/03:00pm 5.8 -7.7 3.1 83 1.2 W 63 80 34 43 - - 0.0
20/02:30pm 5.2 -7.9 3.2 87 0.9 W 61 78 33 42 - - 0.0
20/02:00pm 4.9 -7.0 4.2 95 0.3 W 56 74 30 40 - - 0.0
20/01:30pm 5.1 -8.2 3.8 91 0.6 W 63 76 34 41 - - 0.0
20/01:00pm 5.3 -7.3 3.8 90 0.7 W 59 72 32 39 - - 0.0
20/12:56pm 5.7 -6.4 4.2 90 0.7 W 57 69 31 37 - - 0.0
20/12:33pm 5.2 -3.5 4.0 92 0.5 WSW 39 57 21 31 - - 0.0
20/12:30pm 5.1 -2.9 3.9 92 0.5 WSW 35 52 19 28 - - 0.0
20/12:26pm 5.2 -1.8 4.0 92 0.5 WSW 30 50 16 27 - - 0.0

Other Formats:

Comma delimited format used in spreadsheet applications
http://www.bom.gov.au/fwo/IDT60801/IDT60801.94977.axf

JavaScript Object Notation format (JSON) in row-major order
http://www.bom.gov.au/fwo/IDT60801/IDT60801.94977.json